Time;durP1;ratioP1;P1;durP2;ratioP2;P2;SDS_P1;SDS_P2;PMS_P1;PMS_P2;Temp;Humidity;BMP_temperature;BMP_pressure;BME280_temperature;BME280_humidity;BME280_pressure;Samples;Min_cycle;Max_cycle;Signal;HPM_P1;HPM_P2
2023/09/04 00:00:58;;;;;;;;;;;22.60;60.40;;;;;;5031752;28;19921;-69
2023/09/04 00:03:26;;;;;;;;;;;22.90;59.70;;;;;;5031950;28;19909;-70
2023/09/04 00:05:52;;;;;;;;;;;23.30;59.80;;;;;;5033279;28;19917;-71
2023/09/04 00:08:19;;;;;;;;;;;23.60;58.20;;;;;;5033307;28;19919;-70
2023/09/04 00:10:46;;;;;;;;;;;23.90;56.80;;;;;;5030533;28;19964;-70
2023/09/04 00:13:13;;;;;;;;;;;23.00;57.00;;;;;;5033489;28;19916;-71
2023/09/04 00:15:39;;;;;;;;;;;23.00;58.90;;;;;;5033578;28;19913;-71
2023/09/04 00:18:07;;;;;;;;;;;23.50;57.40;;;;;;5032399;28;20411;-70
2023/09/04 00:20:34;;;;;;;;;;;23.60;57.20;;;;;;5029568;28;19921;-70
2023/09/04 00:23:00;;;;;;;;;;;24.20;56.20;;;;;;5031070;28;19960;-70
2023/09/04 00:25:27;;;;;;;;;;;23.90;56.50;;;;;;5031318;28;19979;-70
2023/09/04 00:27:55;;;;;;;;;;;23.40;56.10;;;;;;5031362;28;19920;-71
2023/09/04 00:30:22;;;;;;;;;;;23.40;56.50;;;;;;5031107;28;19943;-69
2023/09/04 00:32:49;;;;;;;;;;;23.30;57.20;;;;;;5033773;28;19956;-70
2023/09/04 00:35:15;;;;;;;;;;;23.80;56.40;;;;;;5032165;28;19917;-70
2023/09/04 00:37:42;;;;;;;;;;;23.90;56.60;;;;;;5031532;28;19909;-69
2023/09/04 00:40:09;;;;;;;;;;;23.80;56.40;;;;;;5029871;28;19967;-71
2023/09/04 00:42:35;;;;;;;;;;;24.00;56.40;;;;;;5047049;28;19917;-70
2023/09/04 00:45:03;;;;;;;;;;;24.30;54.30;;;;;;5031814;28;19948;-70
2023/09/04 00:47:30;;;;;;;;;;;24.20;55.40;;;;;;5032657;28;19920;-69
2023/09/04 00:49:57;;;;;;;;;;;24.20;54.10;;;;;;5033880;28;19909;-69
2023/09/04 00:52:24;;;;;;;;;;;23.80;55.00;;;;;;5035846;28;19917;-70
2023/09/04 00:54:51;;;;;;;;;;;24.00;55.80;;;;;;5029600;28;19964;-70
2023/09/04 00:57:18;;;;;;;;;;;23.90;54.50;;;;;;5030474;28;19913;-70
2023/09/04 00:59:46;;;;;;;;;;;24.20;55.10;;;;;;5028792;28;19932;-69
2023/09/04 01:02:14;;;;;;;;;;;24.20;54.90;;;;;;5030790;28;19983;-70
2023/09/04 01:04:41;;;;;;;;;;;24.90;53.50;;;;;;5032268;28;19917;-70
2023/09/04 01:07:07;;;;;;;;;;;24.80;53.10;;;;;;5035205;28;19916;-71
2023/09/04 01:09:34;;;;;;;;;;;24.10;54.60;;;;;;5027245;28;19913;-70
2023/09/04 01:12:07;;;;;;;;;;;24.50;53.80;;;;;;5029811;28;20386;-70
2023/09/04 01:14:34;;;;;;;;;;;24.50;53.40;;;;;;5028259;28;19925;-71
2023/09/04 01:17:01;;;;;;;;;;;24.00;55.10;;;;;;5030874;28;19913;-70
2023/09/04 01:19:28;;;;;;;;;;;24.40;55.90;;;;;;5027524;28;19917;-71
2023/09/04 01:21:54;;;;;;;;;;;24.50;53.60;;;;;;5032820;28;19940;-71
2023/09/04 01:24:21;;;;;;;;;;;24.60;53.80;;;;;;5031249;28;20267;-70
2023/09/04 01:26:51;;;;;;;;;;;24.90;53.90;;;;;;5032570;28;19921;-70
2023/09/04 01:29:23;;;;;;;;;;;25.10;53.30;;;;;;5030202;28;19948;-71
2023/09/04 01:32:03;;;;;;;;;;;25.70;53.20;;;;;;5026811;28;20024;-71
2023/09/04 01:34:31;;;;;;;;;;;24.90;52.50;;;;;;5031167;28;19924;-71
2023/09/04 01:36:57;;;;;;;;;;;24.50;53.40;;;;;;5032398;28;20003;-70
2023/09/04 01:39:24;;;;;;;;;;;24.80;54.40;;;;;;5032760;28;19936;-70
2023/09/04 01:41:51;;;;;;;;;;;25.10;53.70;;;;;;5033472;28;19960;-71
2023/09/04 01:44:18;;;;;;;;;;;24.90;53.20;;;;;;5032099;28;20610;-72
2023/09/04 01:46:44;;;;;;;;;;;25.10;53.70;;;;;;5030828;28;19913;-70
2023/09/04 01:49:11;;;;;;;;;;;25.10;53.70;;;;;;5030023;28;19928;-70
2023/09/04 01:51:38;;;;;;;;;;;25.10;52.50;;;;;;5030247;28;19921;-71
2023/09/04 01:54:04;;;;;;;;;;;25.20;54.00;;;;;;5028590;28;19988;-71
2023/09/04 01:56:32;;;;;;;;;;;25.60;53.10;;;;;;5031391;28;20364;-70
2023/09/04 01:58:58;;;;;;;;;;;25.70;52.60;;;;;;5031265;28;19955;-70
2023/09/04 02:01:25;;;;;;;;;;;25.50;52.40;;;;;;5029216;28;19970;-70
2023/09/04 02:03:55;;;;;;;;;;;25.30;52.50;;;;;;5028615;28;20018;-71
2023/09/04 02:06:28;;;;;;;;;;;25.00;53.20;;;;;;5031677;28;19912;-70
2023/09/04 02:08:55;;;;;;;;;;;25.10;54.00;;;;;;5032507;28;19921;-70
2023/09/04 02:11:22;;;;;;;;;;;25.20;52.70;;;;;;5031016;28;19974;-71
2023/09/04 02:13:49;;;;;;;;;;;25.50;52.00;;;;;;5031993;28;19917;-70
2023/09/04 02:16:15;;;;;;;;;;;25.60;52.80;;;;;;5031663;28;19913;-69
2023/09/04 02:18:43;;;;;;;;;;;25.80;52.50;;;;;;5031606;28;20421;-70
2023/09/04 02:21:09;;;;;;;;;;;25.70;51.40;;;;;;5030359;28;20003;-70
2023/09/04 02:23:36;;;;;;;;;;;25.70;53.50;;;;;;5034362;28;19917;-70
2023/09/04 02:26:03;;;;;;;;;;;26.10;51.80;;;;;;5033541;28;19920;-70
2023/09/04 02:28:30;;;;;;;;;;;25.90;52.40;;;;;;5032913;28;20294;-72
2023/09/04 02:30:56;;;;;;;;;;;26.40;52.70;;;;;;5037038;28;19931;-72
2023/09/04 02:33:23;;;;;;;;;;;26.40;50.30;;;;;;5037481;28;19927;-71
2023/09/04 02:35:51;;;;;;;;;;;26.00;50.90;;;;;;5032333;28;19913;-72
2023/09/04 02:38:19;;;;;;;;;;;26.20;49.60;;;;;;5033344;28;19940;-71
2023/09/04 02:40:45;;;;;;;;;;;26.30;50.10;;;;;;5033826;28;19936;-70
2023/09/04 02:43:12;;;;;;;;;;;26.10;50.80;;;;;;5033888;28;20401;-70
2023/09/04 02:45:40;;;;;;;;;;;26.10;50.60;;;;;;5033568;28;19925;-70
2023/09/04 02:48:07;;;;;;;;;;;26.40;49.30;;;;;;5032394;28;19913;-70
2023/09/04 02:50:34;;;;;;;;;;;26.30;50.30;;;;;;5035758;28;19952;-71
2023/09/04 02:53:00;;;;;;;;;;;26.30;50.00;;;;;;5033937;28;20511;-71
2023/09/04 02:55:27;;;;;;;;;;;26.20;49.50;;;;;;5029928;28;20394;-72
2023/09/04 02:57:54;;;;;;;;;;;25.90;49.80;;;;;;5031492;28;21560;-71
2023/09/04 03:00:20;;;;;;;;;;;26.10;49.60;;;;;;5026819;28;19913;-70
2023/09/04 03:02:47;;;;;;;;;;;26.60;49.60;;;;;;5028449;28;20378;-70
2023/09/04 03:05:14;;;;;;;;;;;27.10;49.00;;;;;;5030344;28;20386;-71
2023/09/04 03:07:40;;;;;;;;;;;27.00;48.50;;;;;;5032987;28;19960;-71
2023/09/04 03:10:07;;;;;;;;;;;26.60;48.80;;;;;;5034241;28;19921;-71
2023/09/04 03:12:34;;;;;;;;;;;26.60;49.80;;;;;;5034263;28;20296;-71
2023/09/04 03:15:02;;;;;;;;;;;26.60;49.70;;;;;;5033982;28;20337;-71
2023/09/04 03:17:32;;;;;;;;;;;26.80;49.50;;;;;;5033026;28;19920;-71
2023/09/04 03:19:59;;;;;;;;;;;26.90;49.20;;;;;;5034459;28;19945;-72
2023/09/04 03:22:27;;;;;;;;;;;26.50;49.50;;;;;;5035697;28;19916;-70
2023/09/04 03:24:53;;;;;;;;;;;26.00;50.30;;;;;;5033422;28;20318;-70
2023/09/04 03:27:20;;;;;;;;;;;26.30;51.00;;;;;;5030807;28;20167;-69
2023/09/04 03:29:47;;;;;;;;;;;26.90;49.40;;;;;;5034146;28;19909;-71
2023/09/04 03:32:14;;;;;;;;;;;27.00;49.40;;;;;;5034588;28;19920;-69
2023/09/04 03:34:40;;;;;;;;;;;27.30;48.80;;;;;;5032151;28;19917;-71
2023/09/04 03:37:07;;;;;;;;;;;27.00;48.40;;;;;;5032628;28;19913;-70
2023/09/04 03:39:37;;;;;;;;;;;26.20;49.50;;;;;;5034190;28;19913;-71
2023/09/04 03:42:04;;;;;;;;;;;26.20;52.00;;;;;;5031560;28;19917;-71
2023/09/04 03:44:31;;;;;;;;;;;26.00;50.00;;;;;;5033723;28;20451;-71
2023/09/04 03:47:02;;;;;;;;;;;26.00;50.40;;;;;;5034454;28;20634;-72
2023/09/04 03:49:29;;;;;;;;;;;25.90;50.00;;;;;;5035672;28;20366;-72
2023/09/04 03:51:56;;;;;;;;;;;25.70;50.40;;;;;;5034734;28;20372;-72
2023/09/04 03:54:22;;;;;;;;;;;25.90;51.30;;;;;;5035332;28;19909;-71
2023/09/04 03:56:50;;;;;;;;;;;26.60;52.00;;;;;;5036033;28;20116;-72
2023/09/04 03:59:16;;;;;;;;;;;26.70;49.40;;;;;;5031812;28;19964;-71
2023/09/04 04:01:43;;;;;;;;;;;26.50;50.50;;;;;;5031091;28;19917;-71
2023/09/04 04:04:13;;;;;;;;;;;26.40;49.50;;;;;;5029504;28;19913;-71
2023/09/04 04:06:40;;;;;;;;;;;26.70;49.60;;;;;;5035871;28;19948;-69
2023/09/04 04:09:07;;;;;;;;;;;27.00;49.70;;;;;;5031981;28;19921;-70
2023/09/04 04:11:35;;;;;;;;;;;27.00;49.70;;;;;;5031224;28;20392;-71
2023/09/04 04:14:02;;;;;;;;;;;26.50;50.00;;;;;;5031117;28;19940;-71
2023/09/04 04:16:31;;;;;;;;;;;26.50;51.10;;;;;;5029890;28;19924;-71
2023/09/04 04:18:58;;;;;;;;;;;26.50;50.50;;;;;;5032784;28;19917;-71
2023/09/04 04:21:24;;;;;;;;;;;26.40;50.80;;;;;;5033049;28;19913;-71
2023/09/04 04:23:51;;;;;;;;;;;26.30;51.10;;;;;;5034122;28;20001;-71
2023/09/04 04:26:18;;;;;;;;;;;26.40;51.50;;;;;;5036036;28;20358;-71
2023/09/04 04:28:45;;;;;;;;;;;26.60;50.80;;;;;;5030731;28;19952;-71
2023/09/04 04:31:11;;;;;;;;;;;26.60;51.20;;;;;;5032056;28;19921;-71
2023/09/04 04:33:38;;;;;;;;;;;26.20;51.50;;;;;;5030735;28;20011;-71
2023/09/04 04:36:05;;;;;;;;;;;25.70;52.50;;;;;;5031768;28;19913;-71
2023/09/04 04:38:31;;;;;;;;;;;25.50;52.90;;;;;;5030367;28;19920;-72
2023/09/04 04:40:58;;;;;;;;;;;25.50;53.30;;;;;;5031353;28;19920;-70
2023/09/04 04:43:24;;;;;;;;;;;25.50;53.60;;;;;;5030580;28;19959;-71
2023/09/04 04:45:52;;;;;;;;;;;25.70;53.40;;;;;;5029847;28;20321;-70
2023/09/04 04:48:20;;;;;;;;;;;25.60;52.70;;;;;;5032511;28;19921;-71
2023/09/04 04:50:46;;;;;;;;;;;25.50;53.30;;;;;;5030793;28;19921;-71
2023/09/04 04:53:13;;;;;;;;;;;25.30;53.80;;;;;;5046128;28;19917;-71
2023/09/04 04:55:40;;;;;;;;;;;25.30;54.60;;;;;;5032369;28;19917;-70
2023/09/04 04:58:06;;;;;;;;;;;25.40;53.60;;;;;;5035476;28;19913;-71
2023/09/04 05:00:33;;;;;;;;;;;25.30;55.20;;;;;;5033360;28;19949;-72
2023/09/04 05:03:00;;;;;;;;;;;25.30;56.10;;;;;;5032161;28;19948;-71
2023/09/04 05:05:26;;;;;;;;;;;25.40;57.00;;;;;;5029408;28;19913;-70
2023/09/04 05:07:53;;;;;;;;;;;25.70;56.50;;;;;;5032148;28;20383;-71
2023/09/04 05:10:20;;;;;;;;;;;25.70;54.40;;;;;;5031129;28;19932;-72
2023/09/04 05:12:46;;;;;;;;;;;25.40;56.00;;;;;;5029949;28;19917;-70
2023/09/04 05:15:13;;;;;;;;;;;25.20;56.70;;;;;;5027960;28;19941;-71
2023/09/04 05:17:40;;;;;;;;;;;25.30;57.00;;;;;;5029283;28;20370;-70
2023/09/04 05:20:07;;;;;;;;;;;25.10;57.00;;;;;;5029846;28;19971;-70
2023/09/04 05:22:34;;;;;;;;;;;25.00;57.60;;;;;;5028614;28;19913;-71
2023/09/04 05:25:00;;;;;;;;;;;25.10;57.80;;;;;;5032216;28;19921;-71
2023/09/04 05:27:27;;;;;;;;;;;25.30;57.80;;;;;;5029217;28;19921;-71
2023/09/04 05:29:54;;;;;;;;;;;25.20;57.70;;;;;;5029797;28;19917;-70
2023/09/04 05:32:21;;;;;;;;;;;24.70;58.60;;;;;;5032656;28;20283;-70
2023/09/04 05:34:51;;;;;;;;;;;24.70;59.40;;;;;;5031499;28;19913;-70
2023/09/04 05:37:18;;;;;;;;;;;24.70;59.70;;;;;;5032915;28;20359;-72
2023/09/04 05:39:44;;;;;;;;;;;24.50;59.90;;;;;;5028055;28;19952;-72
2023/09/04 05:42:11;;;;;;;;;;;24.60;59.40;;;;;;5032313;28;19913;-71
2023/09/04 05:44:38;;;;;;;;;;;24.60;60.20;;;;;;5032776;28;19921;-70
2023/09/04 05:47:05;;;;;;;;;;;24.40;60.40;;;;;;5030091;28;19920;-69
2023/09/04 05:49:31;;;;;;;;;;;24.20;60.90;;;;;;5027244;28;19913;-70
2023/09/04 05:51:58;;;;;;;;;;;24.20;61.10;;;;;;5030710;28;20024;-70
2023/09/04 05:54:25;;;;;;;;;;;24.10;61.40;;;;;;5032427;28;20369;-71
2023/09/04 05:56:51;;;;;;;;;;;23.80;62.00;;;;;;5035484;28;20240;-70
2023/09/04 05:59:18;;;;;;;;;;;23.60;63.10;;;;;;5035656;28;20022;-71
2023/09/04 06:01:45;;;;;;;;;;;23.60;63.40;;;;;;5037301;28;20319;-71
2023/09/04 06:04:12;;;;;;;;;;;23.50;63.60;;;;;;5035945;28;19956;-72
2023/09/04 06:06:38;;;;;;;;;;;23.60;63.50;;;;;;5036494;28;19919;-72
2023/09/04 06:09:06;;;;;;;;;;;23.70;63.60;;;;;;5034525;28;19916;-72
2023/09/04 06:11:32;;;;;;;;;;;23.60;63.90;;;;;;5037580;28;19921;-72
2023/09/04 06:13:59;;;;;;;;;;;23.50;64.00;;;;;;5033908;28;19971;-72
2023/09/04 06:16:26;;;;;;;;;;;23.50;64.60;;;;;;5031068;28;19913;-73
2023/09/04 06:18:53;;;;;;;;;;;23.50;64.30;;;;;;5030265;28;20286;-72
2023/09/04 06:21:20;;;;;;;;;;;23.60;63.80;;;;;;5032492;28;19913;-72
2023/09/04 06:23:46;;;;;;;;;;;23.30;64.80;;;;;;5032921;28;19979;-72
2023/09/04 06:26:13;;;;;;;;;;;23.40;64.60;;;;;;5047977;28;20012;-70
2023/09/04 06:28:39;;;;;;;;;;;23.50;64.80;;;;;;5036442;28;19917;-72
2023/09/04 06:31:06;;;;;;;;;;;23.50;64.90;;;;;;5035803;28;19980;-71
2023/09/04 06:33:36;;;;;;;;;;;23.40;65.40;;;;;;5033205;28;20400;-72
2023/09/04 06:36:03;;;;;;;;;;;23.20;65.70;;;;;;5030855;28;20547;-71
2023/09/04 06:38:30;;;;;;;;;;;23.00;66.70;;;;;;5032317;28;19917;-71
2023/09/04 06:41:00;;;;;;;;;;;22.70;67.10;;;;;;5031304;28;19920;-71
2023/09/04 06:43:29;;;;;;;;;;;22.70;67.50;;;;;;5032585;28;20011;-71
2023/09/04 06:45:58;;;;;;;;;;;22.70;67.90;;;;;;5032393;28;19963;-70
2023/09/04 06:48:25;;;;;;;;;;;22.80;68.40;;;;;;5033858;28;19914;-69
2023/09/04 06:50:54;;;;;;;;;;;22.70;68.50;;;;;;5032988;28;20338;-70
2023/09/04 06:53:21;;;;;;;;;;;22.60;68.90;;;;;;5033619;28;19947;-71
2023/09/04 06:55:48;;;;;;;;;;;22.50;69.50;;;;;;5034185;28;19909;-70
2023/09/04 06:58:15;;;;;;;;;;;22.50;69.40;;;;;;5033881;28;19936;-70
2023/09/04 07:00:41;;;;;;;;;;;22.30;69.90;;;;;;5034061;28;19927;-71
2023/09/04 07:03:08;;;;;;;;;;;22.20;70.60;;;;;;5034334;28;19909;-71
2023/09/04 07:05:35;;;;;;;;;;;22.00;71.50;;;;;;5035972;28;19976;-71
2023/09/04 07:08:04;;;;;;;;;;;21.80;72.30;;;;;;5033896;28;20333;-71
2023/09/04 07:10:31;;;;;;;;;;;21.70;73.10;;;;;;5032661;28;19921;-71
2023/09/04 07:12:59;;;;;;;;;;;21.50;73.70;;;;;;5032317;28;19956;-70
2023/09/04 07:15:26;;;;;;;;;;;21.40;74.50;;;;;;5033531;28;19913;-71
2023/09/04 07:17:52;;;;;;;;;;;21.30;75.00;;;;;;5032830;28;20374;-71
2023/09/04 07:20:19;;;;;;;;;;;21.30;75.60;;;;;;5032211;28;19972;-70
2023/09/04 07:22:46;;;;;;;;;;;21.20;76.10;;;;;;5034695;28;19913;-71
2023/09/04 07:25:12;;;;;;;;;;;21.20;76.30;;;;;;5032173;28;20036;-71
2023/09/04 07:27:39;;;;;;;;;;;21.20;76.40;;;;;;5033387;28;19914;-71
2023/09/04 07:30:06;;;;;;;;;;;21.10;76.80;;;;;;5030736;28;19912;-70
2023/09/04 07:32:33;;;;;;;;;;;21.00;77.60;;;;;;5032069;28;19957;-70
2023/09/04 07:34:59;;;;;;;;;;;20.90;78.20;;;;;;5030383;28;19917;-71
2023/09/04 07:37:27;;;;;;;;;;;20.80;78.70;;;;;;5032103;28;19944;-70
2023/09/04 07:39:53;;;;;;;;;;;20.80;79.00;;;;;;5032549;28;19921;-70
2023/09/04 07:42:21;;;;;;;;;;;20.70;79.30;;;;;;5033597;28;20382;-71
2023/09/04 07:44:47;;;;;;;;;;;20.70;79.90;;;;;;5030881;28;20018;-70
2023/09/04 07:47:14;;;;;;;;;;;20.70;80.00;;;;;;5033370;28;19917;-70
2023/09/04 07:49:41;;;;;;;;;;;20.50;80.90;;;;;;5031000;28;20313;-70
2023/09/04 07:52:08;;;;;;;;;;;20.40;81.30;;;;;;5033111;28;19928;-70
2023/09/04 07:54:34;;;;;;;;;;;20.40;81.60;;;;;;5034235;28;19979;-70
2023/09/04 07:57:04;;;;;;;;;;;20.30;82.00;;;;;;5033750;28;19913;-71
2023/09/04 07:59:31;;;;;;;;;;;20.30;82.60;;;;;;5032804;28;19920;-73
2023/09/04 08:01:57;;;;;;;;;;;20.20;83.00;;;;;;5034628;28;20000;-72
2023/09/04 08:04:24;;;;;;;;;;;20.10;83.60;;;;;;5034656;28;20015;-71
2023/09/04 08:06:51;;;;;;;;;;;20.10;83.90;;;;;;5034157;28;20242;-70
2023/09/04 08:09:17;;;;;;;;;;;20.00;84.70;;;;;;5031511;28;19920;-72
2023/09/04 08:11:44;;;;;;;;;;;19.90;85.30;;;;;;5031291;28;19925;-70
2023/09/04 08:14:11;;;;;;;;;;;19.90;85.90;;;;;;5031062;28;19924;-71
2023/09/04 08:16:37;;;;;;;;;;;19.80;86.40;;;;;;5030784;28;19920;-71
2023/09/04 08:19:04;;;;;;;;;;;19.70;87.20;;;;;;5033833;28;19963;-70
2023/09/04 08:21:30;;;;;;;;;;;19.60;87.90;;;;;;5030934;28;20379;-72
2023/09/04 08:23:57;;;;;;;;;;;19.60;88.60;;;;;;5034232;28;19976;-71
2023/09/04 08:26:24;;;;;;;;;;;19.50;89.30;;;;;;5033922;28;19913;-73
2023/09/04 08:28:51;;;;;;;;;;;19.40;89.80;;;;;;5030521;28;19924;-72
2023/09/04 08:31:18;;;;;;;;;;;19.40;90.10;;;;;;5034317;28;20354;-70
2023/09/04 08:33:44;;;;;;;;;;;19.30;90.20;;;;;;5032094;28;19989;-72
2023/09/04 08:36:11;;;;;;;;;;;19.20;90.60;;;;;;5034232;28;19909;-72
2023/09/04 08:38:38;;;;;;;;;;;19.10;91.00;;;;;;5032674;28;19913;-71
2023/09/04 08:41:08;;;;;;;;;;;19.00;91.20;;;;;;5029641;28;19920;-70
2023/09/04 08:43:36;;;;;;;;;;;18.90;91.50;;;;;;5033508;28;20419;-72
2023/09/04 08:46:05;;;;;;;;;;;19.00;91.70;;;;;;5049469;28;20487;-71
2023/09/04 08:48:34;;;;;;;;;;;18.90;91.70;;;;;;5033958;28;19913;-71
2023/09/04 08:51:02;;;;;;;;;;;18.80;91.90;;;;;;5031783;28;19921;-70
2023/09/04 08:53:29;;;;;;;;;;;18.60;92.30;;;;;;5034008;28;19909;-72
2023/09/04 08:55:56;;;;;;;;;;;18.50;92.60;;;;;;5033501;28;19913;-70
2023/09/04 08:58:23;;;;;;;;;;;18.40;92.90;;;;;;5038710;28;19986;-71
2023/09/04 09:00:50;;;;;;;;;;;18.40;92.80;;;;;;5033809;28;19909;-71
2023/09/04 09:03:17;;;;;;;;;;;18.30;92.90;;;;;;5033867;28;19943;-70
2023/09/04 09:05:47;;;;;;;;;;;18.30;93.00;;;;;;5034359;28;19927;-71
2023/09/04 09:08:14;;;;;;;;;;;18.20;93.10;;;;;;5033765;28;19918;-70
2023/09/04 09:10:41;;;;;;;;;;;18.10;93.50;;;;;;5033469;28;19924;-71
2023/09/04 09:13:08;;;;;;;;;;;18.10;93.50;;;;;;5033844;28;19913;-71
2023/09/04 09:15:35;;;;;;;;;;;18.10;93.40;;;;;;5033354;28;19971;-72
2023/09/04 09:18:03;;;;;;;;;;;18.10;93.30;;;;;;5033465;28;19967;-70
2023/09/04 09:20:33;;;;;;;;;;;18.10;93.50;;;;;;5032098;28;20373;-71
2023/09/04 09:23:01;;;;;;;;;;;18.00;93.60;;;;;;5033499;28;19963;-71
2023/09/04 09:25:28;;;;;;;;;;;18.00;93.60;;;;;;5047907;28;20452;-71
2023/09/04 09:28:02;;;;;;;;;;;18.00;93.60;;;;;;5032895;28;20154;-69
2023/09/04 09:30:39;;;;;;;;;;;18.00;93.70;;;;;;5030440;28;19921;-70
2023/09/04 09:33:17;;;;;;;;;;;17.80;93.60;;;;;;5032349;28;20374;-70
2023/09/04 09:35:44;;;;;;;;;;;17.70;94.10;;;;;;5033052;28;19917;-68
2023/09/04 09:38:11;;;;;;;;;;;17.60;94.20;;;;;;5034476;28;19913;-71
2023/09/04 09:40:38;;;;;;;;;;;17.50;94.50;;;;;;5033390;28;19913;-69
2023/09/04 09:43:04;;;;;;;;;;;17.60;94.60;;;;;;5033159;28;20012;-70
2023/09/04 09:45:35;;;;;;;;;;;17.50;94.50;;;;;;5032852;28;19925;-70
2023/09/04 09:48:08;;;;;;;;;;;17.40;94.70;;;;;;5033247;28;19916;-71
2023/09/04 09:50:38;;;;;;;;;;;17.40;94.80;;;;;;5032744;28;19961;-71
2023/09/04 09:53:04;;;;;;;;;;;17.20;95.00;;;;;;5033809;28;20006;-70
2023/09/04 09:55:32;;;;;;;;;;;17.20;95.10;;;;;;5033093;28;19909;-71
2023/09/04 09:57:59;;;;;;;;;;;17.10;95.10;;;;;;5032298;28;19951;-71
2023/09/04 10:00:26;;;;;;;;;;;17.10;95.10;;;;;;5032073;28;19944;-71
2023/09/04 10:02:55;;;;;;;;;;;17.00;95.10;;;;;;5032918;28;19905;-71
2023/09/04 10:05:23;;;;;;;;;;;16.90;95.30;;;;;;5033453;28;19955;-70
2023/09/04 10:07:52;;;;;;;;;;;16.90;95.10;;;;;;5031687;28;20413;-71
2023/09/04 10:10:18;;;;;;;;;;;16.80;95.30;;;;;;5032504;28;19909;-70
2023/09/04 10:12:45;;;;;;;;;;;16.80;95.40;;;;;;5033191;28;19909;-70
2023/09/04 10:15:13;;;;;;;;;;;16.80;95.50;;;;;;5030643;28;19909;-70
2023/09/04 10:17:58;;;;;;;;;;;16.70;95.60;;;;;;5033608;28;20000;-70
2023/09/04 10:20:26;;;;;;;;;;;16.80;95.70;;;;;;5032210;28;19916;-71
2023/09/04 10:23:01;;;;;;;;;;;16.70;95.90;;;;;;5032168;28;20267;-70
2023/09/04 10:25:43;;;;;;;;;;;16.70;95.90;;;;;;5030036;28;19913;-71
2023/09/04 10:28:18;;;;;;;;;;;16.80;95.90;;;;;;5032206;28;19905;-70
2023/09/04 10:30:49;;;;;;;;;;;16.80;95.90;;;;;;5032248;28;19925;-71
2023/09/04 10:33:15;;;;;;;;;;;16.70;95.60;;;;;;5032796;28;20358;-71
2023/09/04 10:35:42;;;;;;;;;;;16.60;95.90;;;;;;5046679;28;19933;-70
2023/09/04 10:38:10;;;;;;;;;;;16.60;95.90;;;;;;5029727;28;20271;-70
2023/09/04 10:40:38;;;;;;;;;;;16.50;96.10;;;;;;5032746;28;19913;-69
2023/09/04 10:43:05;;;;;;;;;;;16.50;96.00;;;;;;5033070;28;20404;-70
2023/09/04 10:45:32;;;;;;;;;;;16.40;96.10;;;;;;5034820;28;19921;-71
2023/09/04 10:48:02;;;;;;;;;;;16.30;96.50;;;;;;5035525;28;19941;-69
2023/09/04 10:50:34;;;;;;;;;;;16.30;96.60;;;;;;5032908;28;19909;-69
2023/09/04 10:53:02;;;;;;;;;;;16.20;96.50;;;;;;5034526;28;19905;-69
2023/09/04 10:55:29;;;;;;;;;;;16.20;96.70;;;;;;5035435;28;19909;-70
2023/09/04 10:57:57;;;;;;;;;;;16.10;96.70;;;;;;5036049;28;19912;-70
2023/09/04 11:00:32;;;;;;;;;;;16.00;96.60;;;;;;5036696;28;19913;-70
2023/09/04 11:03:18;;;;;;;;;;;15.90;96.90;;;;;;5030015;28;19921;-70
2023/09/04 11:06:07;;;;;;;;;;;15.90;97.00;;;;;;5035680;28;20466;-71
2023/09/04 11:08:34;;;;;;;;;;;15.90;96.90;;;;;;5033434;28;19909;-69
2023/09/04 11:11:03;;;;;;;;;;;15.80;96.90;;;;;;5036279;28;19917;-70
2023/09/04 11:13:33;;;;;;;;;;;15.80;96.80;;;;;;5036045;28;19972;-70
2023/09/04 11:16:03;;;;;;;;;;;15.70;96.70;;;;;;5036643;28;19916;-70
2023/09/04 11:18:34;;;;;;;;;;;15.70;96.90;;;;;;5036020;28;19912;-70
2023/09/04 11:21:01;;;;;;;;;;;15.60;97.10;;;;;;5034255;28;19915;-70
2023/09/04 11:23:28;;;;;;;;;;;15.60;97.20;;;;;;5036242;28;19905;-69
2023/09/04 11:25:55;;;;;;;;;;;15.60;97.10;;;;;;5033308;28;19940;-70
2023/09/04 11:28:23;;;;;;;;;;;15.50;97.50;;;;;;5035564;28;19917;-69
2023/09/04 11:30:52;;;;;;;;;;;15.40;97.40;;;;;;5034127;28;19916;-70
2023/09/04 11:33:20;;;;;;;;;;;15.40;97.30;;;;;;5034863;28;19905;-71
2023/09/04 11:36:02;;;;;;;;;;;15.50;97.40;;;;;;5034711;28;19944;-69
2023/09/04 11:38:29;;;;;;;;;;;15.50;97.50;;;;;;5034961;28;19927;-71
2023/09/04 11:40:56;;;;;;;;;;;15.40;97.40;;;;;;5035306;28;19999;-71
2023/09/04 11:43:27;;;;;;;;;;;15.40;97.70;;;;;;5034243;28;19910;-70
2023/09/04 11:45:57;;;;;;;;;;;15.40;97.80;;;;;;5031454;28;19917;-71
2023/09/04 11:48:24;;;;;;;;;;;15.40;97.90;;;;;;5048091;28;20242;-69
2023/09/04 11:50:51;;;;;;;;;;;15.30;98.00;;;;;;5033969;28;19914;-71
2023/09/04 11:53:18;;;;;;;;;;;15.30;97.60;;;;;;5035155;28;20342;-71
2023/09/04 11:55:46;;;;;;;;;;;15.20;97.40;;;;;;5035055;28;19912;-71
2023/09/04 11:58:13;;;;;;;;;;;15.10;97.40;;;;;;5033877;28;19913;-71
2023/09/04 12:00:40;;;;;;;;;;;15.00;97.60;;;;;;5035151;28;19912;-70
2023/09/04 12:03:07;;;;;;;;;;;15.00;97.90;;;;;;5033087;28;19905;-71
2023/09/04 12:05:34;;;;;;;;;;;15.00;98.10;;;;;;5036592;28;20331;-71
2023/09/04 12:08:02;;;;;;;;;;;15.00;97.70;;;;;;5033827;28;19909;-71
2023/09/04 12:10:28;;;;;;;;;;;14.90;97.60;;;;;;5034296;28;19913;-71
2023/09/04 12:12:55;;;;;;;;;;;14.80;97.60;;;;;;5035300;28;19909;-71
2023/09/04 12:15:33;;;;;;;;;;;14.80;97.80;;;;;;5034536;28;19905;-71
2023/09/04 12:18:03;;;;;;;;;;;14.80;97.80;;;;;;5033142;28;19932;-71
2023/09/04 12:20:40;;;;;;;;;;;14.70;97.90;;;;;;5032567;28;19909;-70
2023/09/04 12:23:07;;;;;;;;;;;14.70;97.70;;;;;;5034997;28;19911;-70
2023/09/04 12:25:40;;;;;;;;;;;14.70;98.00;;;;;;5032757;28;19909;-70
2023/09/04 12:28:08;;;;;;;;;;;14.70;98.10;;;;;;5032195;28;20008;-70
2023/09/04 12:30:44;;;;;;;;;;;14.60;97.90;;;;;;5034232;28;19918;-71
2023/09/04 12:33:11;;;;;;;;;;;14.50;98.00;;;;;;5034388;28;19909;-70
2023/09/04 12:35:39;;;;;;;;;;;14.50;98.20;;;;;;5033733;28;19928;-69
2023/09/04 12:38:05;;;;;;;;;;;14.40;98.30;;;;;;5034045;28;19909;-70
2023/09/04 12:40:32;;;;;;;;;;;14.40;98.30;;;;;;5036193;28;19906;-70
2023/09/04 12:43:01;;;;;;;;;;;14.50;98.20;;;;;;5033891;28;19905;-70
2023/09/04 12:45:27;;;;;;;;;;;14.50;97.70;;;;;;5032615;28;20382;-70
2023/09/04 12:47:54;;;;;;;;;;;14.30;97.50;;;;;;5034357;28;20393;-70
2023/09/04 12:50:21;;;;;;;;;;;14.30;97.80;;;;;;5032981;28;19913;-70
2023/09/04 12:52:48;;;;;;;;;;;14.20;97.80;;;;;;5034788;28;19921;-70
2023/09/04 12:55:15;;;;;;;;;;;14.20;98.00;;;;;;5033694;28;20345;-69
2023/09/04 12:57:47;;;;;;;;;;;14.20;97.60;;;;;;5033755;28;20285;-70
2023/09/04 13:00:14;;;;;;;;;;;14.10;98.00;;;;;;5031984;28;19979;-70
2023/09/04 13:02:40;;;;;;;;;;;14.00;98.10;;;;;;5033127;28;19959;-70
2023/09/04 13:05:08;;;;;;;;;;;14.10;98.10;;;;;;5032255;28;19915;-70
2023/09/04 13:07:34;;;;;;;;;;;14.00;98.30;;;;;;5033624;28;19909;-70
2023/09/04 13:10:01;;;;;;;;;;;14.00;98.40;;;;;;5035050;28;19905;-70
2023/09/04 13:12:28;;;;;;;;;;;14.10;98.40;;;;;;5031318;28;20413;-70
2023/09/04 13:14:54;;;;;;;;;;;14.00;97.90;;;;;;5033711;28;20263;-70
2023/09/04 13:17:21;;;;;;;;;;;13.90;97.90;;;;;;5033478;28;19989;-70
2023/09/04 13:19:48;;;;;;;;;;;13.90;98.00;;;;;;5033885;28;19909;-70
2023/09/04 13:22:15;;;;;;;;;;;13.90;98.10;;;;;;5032206;28;19909;-70
2023/09/04 13:24:41;;;;;;;;;;;13.80;98.10;;;;;;5032668;28;19963;-69
2023/09/04 13:27:09;;;;;;;;;;;13.80;98.40;;;;;;5032044;28;19915;-70
2023/09/04 13:29:36;;;;;;;;;;;13.80;98.00;;;;;;5032565;28;19959;-70
2023/09/04 13:32:02;;;;;;;;;;;13.70;98.10;;;;;;5033290;28;20374;-70
2023/09/04 13:34:29;;;;;;;;;;;13.80;98.30;;;;;;5033390;28;20381;-70
2023/09/04 13:36:56;;;;;;;;;;;13.70;98.30;;;;;;5033012;28;19906;-70
2023/09/04 13:39:22;;;;;;;;;;;13.70;98.40;;;;;;5032282;28;19913;-69
2023/09/04 13:41:49;;;;;;;;;;;13.70;98.40;;;;;;5033286;28;20001;-70
2023/09/04 13:44:16;;;;;;;;;;;13.70;98.40;;;;;;5033125;28;20358;-70
2023/09/04 13:46:42;;;;;;;;;;;13.60;98.70;;;;;;5031915;28;19905;-70
2023/09/04 13:49:09;;;;;;;;;;;13.50;98.70;;;;;;5033733;28;20504;-70
2023/09/04 13:51:36;;;;;;;;;;;13.40;98.60;;;;;;5029797;28;19924;-70
2023/09/04 13:54:03;;;;;;;;;;;13.50;99.00;;;;;;5030060;28;20354;-70
2023/09/04 13:56:29;;;;;;;;;;;13.50;99.00;;;;;;5031307;28;19913;-70
2023/09/04 13:58:56;;;;;;;;;;;13.60;99.40;;;;;;5031223;28;20031;-70
2023/09/04 14:01:22;;;;;;;;;;;13.60;99.80;;;;;;5032669;28;20366;-70
2023/09/04 14:03:49;;;;;;;;;;;13.60;99.90;;;;;;5031327;28;19913;-70
2023/09/04 14:06:16;;;;;;;;;;;13.60;99.90;;;;;;5032857;28;20039;-71
2023/09/04 14:08:43;;;;;;;;;;;13.60;99.90;;;;;;5025633;28;19932;-70
2023/09/04 14:11:09;;;;;;;;;;;13.60;99.90;;;;;;5031192;28;19929;-70
2023/09/04 14:13:37;;;;;;;;;;;13.50;99.90;;;;;;5029771;28;20823;-70
2023/09/04 14:16:03;;;;;;;;;;;13.50;99.90;;;;;;5032930;28;19905;-70
2023/09/04 14:18:30;;;;;;;;;;;13.50;99.90;;;;;;5034703;28;19932;-70